sensor_id;sensor_type;location;lat;lon;timestamp;temperature;humidity
54576;DHT22;40472;53.486;14.542;2022-07-05T00:01:34;15.30;99.90
54576;DHT22;40472;53.486;14.542;2022-07-05T00:04:03;15.20;99.90
54576;DHT22;40472;53.486;14.542;2022-07-05T00:06:30;15.30;99.90
54576;DHT22;40472;53.486;14.542;2022-07-05T00:08:57;15.30;99.90
54576;DHT22;40472;53.486;14.542;2022-07-05T00:11:26;15.30;99.90
54576;DHT22;40472;53.486;14.542;2022-07-05T00:13:53;15.30;99.90
54576;DHT22;40472;53.486;14.542;2022-07-05T00:16:19;15.20;99.90
54576;DHT22;40472;53.486;14.542;2022-07-05T00:18:46;15.20;99.90
54576;DHT22;40472;53.486;14.542;2022-07-05T00:21:12;15.10;99.90
54576;DHT22;40472;53.486;14.542;2022-07-05T00:23:39;15.10;99.90
54576;DHT22;40472;53.486;14.542;2022-07-05T00:26:05;15.00;99.90
54576;DHT22;40472;53.486;14.542;2022-07-05T00:28:33;15.00;99.90
54576;DHT22;40472;53.486;14.542;2022-07-05T00:31:00;15.00;99.90
54576;DHT22;40472;53.486;14.542;2022-07-05T00:33:26;15.00;99.90
54576;DHT22;40472;53.486;14.542;2022-07-05T00:35:52;14.90;99.90
54576;DHT22;40472;53.486;14.542;2022-07-05T00:38:18;15.00;99.90
54576;DHT22;40472;53.486;14.542;2022-07-05T00:40:44;15.10;99.90
54576;DHT22;40472;53.486;14.542;2022-07-05T00:43:11;15.10;99.90
54576;DHT22;40472;53.486;14.542;2022-07-05T00:45:37;15.10;99.90
54576;DHT22;40472;53.486;14.542;2022-07-05T00:48:03;15.20;99.90
54576;DHT22;40472;53.486;14.542;2022-07-05T00:50:30;15.10;99.90
54576;DHT22;40472;53.486;14.542;2022-07-05T00:52:56;15.10;99.90
54576;DHT22;40472;53.486;14.542;2022-07-05T00:55:23;15.20;99.90
54576;DHT22;40472;53.486;14.542;2022-07-05T00:57:49;15.20;99.90
54576;DHT22;40472;53.486;14.542;2022-07-05T01:00:16;15.20;99.90
54576;DHT22;40472;53.486;14.542;2022-07-05T01:02:42;15.20;99.90
54576;DHT22;40472;53.486;14.542;2022-07-05T01:05:08;15.20;99.90
54576;DHT22;40472;53.486;14.542;2022-07-05T01:07:34;15.10;99.90
54576;DHT22;40472;53.486;14.542;2022-07-05T01:10:01;15.10;99.90
54576;DHT22;40472;53.486;14.542;2022-07-05T01:12:27;15.10;99.90
54576;DHT22;40472;53.486;14.542;2022-07-05T01:14:54;15.10;99.90
54576;DHT22;40472;53.486;14.542;2022-07-05T01:17:21;15.10;99.90
54576;DHT22;40472;53.486;14.542;2022-07-05T01:19:50;15.10;99.90
54576;DHT22;40472;53.486;14.542;2022-07-05T01:22:19;15.20;99.90
54576;DHT22;40472;53.486;14.542;2022-07-05T01:24:47;15.20;99.90
54576;DHT22;40472;53.486;14.542;2022-07-05T01:27:14;15.30;99.90
54576;DHT22;40472;53.486;14.542;2022-07-05T01:29:41;15.20;99.90
54576;DHT22;40472;53.486;14.542;2022-07-05T01:32:08;15.30;99.90
54576;DHT22;40472;53.486;14.542;2022-07-05T01:34:37;15.20;99.90
54576;DHT22;40472;53.486;14.542;2022-07-05T01:37:04;15.20;99.90
54576;DHT22;40472;53.486;14.542;2022-07-05T01:39:31;15.10;99.90
54576;DHT22;40472;53.486;14.542;2022-07-05T01:41:57;15.10;99.90
54576;DHT22;40472;53.486;14.542;2022-07-05T01:44:24;15.10;99.90
54576;DHT22;40472;53.486;14.542;2022-07-05T01:46:55;15.10;99.90
54576;DHT22;40472;53.486;14.542;2022-07-05T01:49:25;15.20;99.90
54576;DHT22;40472;53.486;14.542;2022-07-05T01:51:57;15.10;99.90
54576;DHT22;40472;53.486;14.542;2022-07-05T01:54:28;15.00;99.90
54576;DHT22;40472;53.486;14.542;2022-07-05T01:56:54;15.00;99.90
54576;DHT22;40472;53.486;14.542;2022-07-05T01:59:20;15.10;99.90
54576;DHT22;40472;53.486;14.542;2022-07-05T02:01:46;15.00;99.90
54576;DHT22;40472;53.486;14.542;2022-07-05T02:04:12;15.00;99.90
54576;DHT22;40472;53.486;14.542;2022-07-05T02:06:42;15.00;99.90
54576;DHT22;40472;53.486;14.542;2022-07-05T02:09:11;14.90;99.90
54576;DHT22;40472;53.486;14.542;2022-07-05T02:11:37;15.00;99.90
54576;DHT22;40472;53.486;14.542;2022-07-05T02:14:03;14.90;99.90
54576;DHT22;40472;53.486;14.542;2022-07-05T02:16:29;15.00;99.90
54576;DHT22;40472;53.486;14.542;2022-07-05T02:18:55;15.00;99.90
54576;DHT22;40472;53.486;14.542;2022-07-05T02:21:22;15.00;99.90
54576;DHT22;40472;53.486;14.542;2022-07-05T02:23:48;15.00;99.90
54576;DHT22;40472;53.486;14.542;2022-07-05T02:26:14;14.90;99.90
54576;DHT22;40472;53.486;14.542;2022-07-05T02:28:41;14.90;99.90
54576;DHT22;40472;53.486;14.542;2022-07-05T02:31:07;14.80;99.90
54576;DHT22;40472;53.486;14.542;2022-07-05T02:33:33;14.80;99.90
54576;DHT22;40472;53.486;14.542;2022-07-05T02:36:11;14.60;99.90
54576;DHT22;40472;53.486;14.542;2022-07-05T02:38:38;14.70;99.90
54576;DHT22;40472;53.486;14.542;2022-07-05T02:41:09;14.70;99.90
54576;DHT22;40472;53.486;14.542;2022-07-05T02:43:36;14.80;99.90
54576;DHT22;40472;53.486;14.542;2022-07-05T02:46:04;14.70;99.90
54576;DHT22;40472;53.486;14.542;2022-07-05T02:48:32;14.70;99.90
54576;DHT22;40472;53.486;14.542;2022-07-05T02:50:59;14.70;99.90
54576;DHT22;40472;53.486;14.542;2022-07-05T02:53:25;14.80;99.90
54576;DHT22;40472;53.486;14.542;2022-07-05T02:55:51;14.90;99.90
54576;DHT22;40472;53.486;14.542;2022-07-05T02:58:17;14.80;99.90
54576;DHT22;40472;53.486;14.542;2022-07-05T03:00:44;14.80;99.90
54576;DHT22;40472;53.486;14.542;2022-07-05T03:03:10;14.70;99.90
54576;DHT22;40472;53.486;14.542;2022-07-05T03:05:36;14.70;99.90
54576;DHT22;40472;53.486;14.542;2022-07-05T03:08:02;14.80;99.90
54576;DHT22;40472;53.486;14.542;2022-07-05T03:10:28;14.80;99.90
54576;DHT22;40472;53.486;14.542;2022-07-05T03:12:54;14.80;99.90
54576;DHT22;40472;53.486;14.542;2022-07-05T03:15:19;14.80;99.90
54576;DHT22;40472;53.486;14.542;2022-07-05T03:17:45;14.80;99.90
54576;DHT22;40472;53.486;14.542;2022-07-05T03:20:11;14.80;99.90
54576;DHT22;40472;53.486;14.542;2022-07-05T03:22:37;14.80;99.90
54576;DHT22;40472;53.486;14.542;2022-07-05T03:25:03;14.80;99.90
54576;DHT22;40472;53.486;14.542;2022-07-05T03:27:28;14.80;99.90
54576;DHT22;40472;53.486;14.542;2022-07-05T03:29:55;14.70;99.90
54576;DHT22;40472;53.486;14.542;2022-07-05T03:32:21;14.80;99.90
54576;DHT22;40472;53.486;14.542;2022-07-05T03:34:46;14.90;99.90
54576;DHT22;40472;53.486;14.542;2022-07-05T03:37:12;14.90;99.90
54576;DHT22;40472;53.486;14.542;2022-07-05T03:39:38;14.90;99.90
54576;DHT22;40472;53.486;14.542;2022-07-05T03:42:04;14.90;99.90
54576;DHT22;40472;53.486;14.542;2022-07-05T03:44:30;15.00;99.90
54576;DHT22;40472;53.486;14.542;2022-07-05T03:46:58;15.10;99.90
54576;DHT22;40472;53.486;14.542;2022-07-05T03:49:24;15.10;99.90
54576;DHT22;40472;53.486;14.542;2022-07-05T03:51:50;15.10;99.90
54576;DHT22;40472;53.486;14.542;2022-07-05T03:54:16;15.20;99.90
54576;DHT22;40472;53.486;14.542;2022-07-05T03:56:41;15.30;99.90
54576;DHT22;40472;53.486;14.542;2022-07-05T03:59:07;15.30;99.90
54576;DHT22;40472;53.486;14.542;2022-07-05T04:01:33;15.30;99.90
54576;DHT22;40472;53.486;14.542;2022-07-05T04:03:59;15.30;99.90
54576;DHT22;40472;53.486;14.542;2022-07-05T04:06:26;15.40;99.90
54576;DHT22;40472;53.486;14.542;2022-07-05T04:08:52;15.50;99.90
54576;DHT22;40472;53.486;14.542;2022-07-05T04:11:17;15.50;99.90
54576;DHT22;40472;53.486;14.542;2022-07-05T04:13:43;15.50;99.90
54576;DHT22;40472;53.486;14.542;2022-07-05T04:16:09;15.60;99.90
54576;DHT22;40472;53.486;14.542;2022-07-05T04:18:35;15.60;99.90
54576;DHT22;40472;53.486;14.542;2022-07-05T04:21:02;15.60;99.90
54576;DHT22;40472;53.486;14.542;2022-07-05T04:23:28;15.70;99.90
54576;DHT22;40472;53.486;14.542;2022-07-05T04:25:54;15.70;99.90
54576;DHT22;40472;53.486;14.542;2022-07-05T04:28:20;15.80;99.90
54576;DHT22;40472;53.486;14.542;2022-07-05T04:30:46;15.80;99.90
54576;DHT22;40472;53.486;14.542;2022-07-05T04:33:12;15.80;99.90
54576;DHT22;40472;53.486;14.542;2022-07-05T04:35:38;15.90;99.90
54576;DHT22;40472;53.486;14.542;2022-07-05T04:38:03;16.00;99.90
54576;DHT22;40472;53.486;14.542;2022-07-05T04:40:29;16.20;99.90
54576;DHT22;40472;53.486;14.542;2022-07-05T04:42:55;16.40;99.90
54576;DHT22;40472;53.486;14.542;2022-07-05T04:45:21;16.40;99.90
54576;DHT22;40472;53.486;14.542;2022-07-05T04:47:47;16.50;99.90
54576;DHT22;40472;53.486;14.542;2022-07-05T04:50:13;16.30;99.90
54576;DHT22;40472;53.486;14.542;2022-07-05T04:52:38;16.40;99.90
54576;DHT22;40472;53.486;14.542;2022-07-05T04:55:04;16.40;99.90
54576;DHT22;40472;53.486;14.542;2022-07-05T04:57:41;16.40;99.90
54576;DHT22;40472;53.486;14.542;2022-07-05T05:00:11;16.40;99.90
54576;DHT22;40472;53.486;14.542;2022-07-05T05:02:38;16.40;99.90
54576;DHT22;40472;53.486;14.542;2022-07-05T05:05:04;16.40;99.90
54576;DHT22;40472;53.486;14.542;2022-07-05T05:07:30;16.40;99.90
54576;DHT22;40472;53.486;14.542;2022-07-05T05:09:56;16.40;99.90
54576;DHT22;40472;53.486;14.542;2022-07-05T05:12:22;16.40;99.90
54576;DHT22;40472;53.486;14.542;2022-07-05T05:14:49;16.50;99.90
54576;DHT22;40472;53.486;14.542;2022-07-05T05:17:15;16.60;99.90
54576;DHT22;40472;53.486;14.542;2022-07-05T05:19:41;16.70;99.90
54576;DHT22;40472;53.486;14.542;2022-07-05T05:22:07;16.60;99.90
54576;DHT22;40472;53.486;14.542;2022-07-05T05:24:33;16.70;99.90
54576;DHT22;40472;53.486;14.542;2022-07-05T05:27:00;16.80;99.90
54576;DHT22;40472;53.486;14.542;2022-07-05T05:29:26;16.70;99.90
54576;DHT22;40472;53.486;14.542;2022-07-05T05:31:52;16.70;99.90
54576;DHT22;40472;53.486;14.542;2022-07-05T05:34:18;16.70;99.90
54576;DHT22;40472;53.486;14.542;2022-07-05T05:36:44;16.60;99.90
54576;DHT22;40472;53.486;14.542;2022-07-05T05:39:10;16.80;99.90
54576;DHT22;40472;53.486;14.542;2022-07-05T05:41:36;16.80;99.90
54576;DHT22;40472;53.486;14.542;2022-07-05T05:44:02;16.90;99.90
54576;DHT22;40472;53.486;14.542;2022-07-05T05:46:28;16.90;99.90
54576;DHT22;40472;53.486;14.542;2022-07-05T05:48:53;16.90;99.90
54576;DHT22;40472;53.486;14.542;2022-07-05T05:51:19;16.80;99.90
54576;DHT22;40472;53.486;14.542;2022-07-05T05:53:45;16.80;99.90
54576;DHT22;40472;53.486;14.542;2022-07-05T05:56:12;16.70;99.90
54576;DHT22;40472;53.486;14.542;2022-07-05T05:58:38;16.70;99.90
54576;DHT22;40472;53.486;14.542;2022-07-05T06:01:04;16.70;99.90
54576;DHT22;40472;53.486;14.542;2022-07-05T06:03:30;16.50;99.90
54576;DHT22;40472;53.486;14.542;2022-07-05T06:05:56;16.40;99.90
54576;DHT22;40472;53.486;14.542;2022-07-05T06:08:22;16.30;99.90
54576;DHT22;40472;53.486;14.542;2022-07-05T06:10:50;16.30;99.90
54576;DHT22;40472;53.486;14.542;2022-07-05T06:13:15;16.40;99.90
54576;DHT22;40472;53.486;14.542;2022-07-05T06:15:42;16.40;99.90
54576;DHT22;40472;53.486;14.542;2022-07-05T06:18:09;16.30;99.90
54576;DHT22;40472;53.486;14.542;2022-07-05T06:20:37;16.30;99.90
54576;DHT22;40472;53.486;14.542;2022-07-05T06:23:04;16.30;99.90
54576;DHT22;40472;53.486;14.542;2022-07-05T06:25:31;16.30;99.90
54576;DHT22;40472;53.486;14.542;2022-07-05T06:28:08;16.40;99.90
54576;DHT22;40472;53.486;14.542;2022-07-05T06:30:36;16.50;99.90
54576;DHT22;40472;53.486;14.542;2022-07-05T06:33:02;16.60;99.90
54576;DHT22;40472;53.486;14.542;2022-07-05T06:35:29;16.70;99.90
54576;DHT22;40472;53.486;14.542;2022-07-05T06:37:58;16.80;99.90
54576;DHT22;40472;53.486;14.542;2022-07-05T06:40:35;16.80;99.90
54576;DHT22;40472;53.486;14.542;2022-07-05T06:43:03;17.00;99.90
54576;DHT22;40472;53.486;14.542;2022-07-05T06:45:29;17.00;99.90
54576;DHT22;40472;53.486;14.542;2022-07-05T06:48:00;17.10;99.90
54576;DHT22;40472;53.486;14.542;2022-07-05T06:50:27;17.10;99.90
54576;DHT22;40472;53.486;14.542;2022-07-05T06:52:54;17.20;99.90
54576;DHT22;40472;53.486;14.542;2022-07-05T06:55:21;17.20;99.90
54576;DHT22;40472;53.486;14.542;2022-07-05T06:57:47;17.30;99.90
54576;DHT22;40472;53.486;14.542;2022-07-05T07:00:13;17.40;99.90
54576;DHT22;40472;53.486;14.542;2022-07-05T07:02:40;17.50;99.90
54576;DHT22;40472;53.486;14.542;2022-07-05T07:05:06;17.70;99.90
54576;DHT22;40472;53.486;14.542;2022-07-05T07:07:33;17.90;99.90
54576;DHT22;40472;53.486;14.542;2022-07-05T07:10:17;18.10;99.90
54576;DHT22;40472;53.486;14.542;2022-07-05T07:12:43;18.30;99.90
54576;DHT22;40472;53.486;14.542;2022-07-05T07:15:09;18.40;99.90
54576;DHT22;40472;53.486;14.542;2022-07-05T07:17:35;18.40;99.90
54576;DHT22;40472;53.486;14.542;2022-07-05T07:20:00;18.60;99.90
54576;DHT22;40472;53.486;14.542;2022-07-05T07:22:26;18.50;99.90
54576;DHT22;40472;53.486;14.542;2022-07-05T07:24:53;18.20;99.90
54576;DHT22;40472;53.486;14.542;2022-07-05T07:27:19;18.20;99.90
54576;DHT22;40472;53.486;14.542;2022-07-05T07:29:45;18.40;99.90
54576;DHT22;40472;53.486;14.542;2022-07-05T07:32:11;18.50;99.90
54576;DHT22;40472;53.486;14.542;2022-07-05T07:34:37;18.60;99.90
54576;DHT22;40472;53.486;14.542;2022-07-05T07:37:04;18.50;99.90
54576;DHT22;40472;53.486;14.542;2022-07-05T07:39:30;18.50;99.90
54576;DHT22;40472;53.486;14.542;2022-07-05T07:42:00;18.50;99.90
54576;DHT22;40472;53.486;14.542;2022-07-05T07:44:26;18.50;99.90
54576;DHT22;40472;53.486;14.542;2022-07-05T07:46:52;18.50;99.90
54576;DHT22;40472;53.486;14.542;2022-07-05T07:49:18;18.60;99.90
54576;DHT22;40472;53.486;14.542;2022-07-05T07:51:44;18.50;99.90
54576;DHT22;40472;53.486;14.542;2022-07-05T07:54:10;18.30;99.90
54576;DHT22;40472;53.486;14.542;2022-07-05T07:56:36;18.40;99.90
54576;DHT22;40472;53.486;14.542;2022-07-05T07:59:02;18.40;99.90
54576;DHT22;40472;53.486;14.542;2022-07-05T08:01:28;18.50;99.90
54576;DHT22;40472;53.486;14.542;2022-07-05T08:03:57;18.60;99.90
54576;DHT22;40472;53.486;14.542;2022-07-05T08:06:24;18.80;99.90
54576;DHT22;40472;53.486;14.542;2022-07-05T08:08:50;18.80;99.90
54576;DHT22;40472;53.486;14.542;2022-07-05T08:11:17;18.90;99.90
54576;DHT22;40472;53.486;14.542;2022-07-05T08:13:43;19.00;99.90
54576;DHT22;40472;53.486;14.542;2022-07-05T08:16:10;19.00;99.90
54576;DHT22;40472;53.486;14.542;2022-07-05T08:18:36;19.10;99.90
54576;DHT22;40472;53.486;14.542;2022-07-05T08:21:21;19.10;99.90
54576;DHT22;40472;53.486;14.542;2022-07-05T08:24:19;19.10;99.90
54576;DHT22;40472;53.486;14.542;2022-07-05T08:26:45;19.00;99.90
54576;DHT22;40472;53.486;14.542;2022-07-05T08:29:12;19.10;99.90
54576;DHT22;40472;53.486;14.542;2022-07-05T08:31:42;19.10;99.90
54576;DHT22;40472;53.486;14.542;2022-07-05T08:34:09;19.20;99.90
54576;DHT22;40472;53.486;14.542;2022-07-05T08:36:35;19.10;99.90
54576;DHT22;40472;53.486;14.542;2022-07-05T08:39:02;19.10;99.90
54576;DHT22;40472;53.486;14.542;2022-07-05T08:41:29;19.30;99.90
54576;DHT22;40472;53.486;14.542;2022-07-05T08:43:57;19.20;99.90
54576;DHT22;40472;53.486;14.542;2022-07-05T08:46:25;19.20;99.90
54576;DHT22;40472;53.486;14.542;2022-07-05T08:48:54;19.30;99.90
54576;DHT22;40472;53.486;14.542;2022-07-05T08:51:22;19.20;99.90
54576;DHT22;40472;53.486;14.542;2022-07-05T08:53:53;19.20;99.90
54576;DHT22;40472;53.486;14.542;2022-07-05T08:56:19;19.50;99.90
54576;DHT22;40472;53.486;14.542;2022-07-05T08:58:45;19.70;99.90
54576;DHT22;40472;53.486;14.542;2022-07-05T09:01:12;20.00;99.90
54576;DHT22;40472;53.486;14.542;2022-07-05T09:03:47;20.00;99.90
54576;DHT22;40472;53.486;14.542;2022-07-05T09:06:25;20.00;99.90
54576;DHT22;40472;53.486;14.542;2022-07-05T09:08:53;20.00;99.90
54576;DHT22;40472;53.486;14.542;2022-07-05T09:11:24;20.20;99.90
54576;DHT22;40472;53.486;14.542;2022-07-05T09:13:51;20.30;99.90
54576;DHT22;40472;53.486;14.542;2022-07-05T09:16:17;20.40;99.90
54576;DHT22;40472;53.486;14.542;2022-07-05T09:18:46;20.60;99.90
54576;DHT22;40472;53.486;14.542;2022-07-05T09:21:19;20.70;99.90
54576;DHT22;40472;53.486;14.542;2022-07-05T09:23:59;20.70;99.90
54576;DHT22;40472;53.486;14.542;2022-07-05T09:29:14;20.30;99.90
54576;DHT22;40472;53.486;14.542;2022-07-05T09:31:42;20.50;99.90
54576;DHT22;40472;53.486;14.542;2022-07-05T09:34:10;20.60;99.90
54576;DHT22;40472;53.486;14.542;2022-07-05T09:36:49;20.50;99.70
54576;DHT22;40472;53.486;14.542;2022-07-05T09:39:16;20.60;99.90
54576;DHT22;40472;53.486;14.542;2022-07-05T09:41:42;20.70;99.90
54576;DHT22;40472;53.486;14.542;2022-07-05T09:44:08;20.60;99.90
54576;DHT22;40472;53.486;14.542;2022-07-05T09:46:34;20.50;99.90
54576;DHT22;40472;53.486;14.542;2022-07-05T09:49:00;20.60;99.80
54576;DHT22;40472;53.486;14.542;2022-07-05T09:51:26;20.80;99.90
54576;DHT22;40472;53.486;14.542;2022-07-05T09:53:54;20.80;99.90
54576;DHT22;40472;53.486;14.542;2022-07-05T09:56:21;21.10;99.50
54576;DHT22;40472;53.486;14.542;2022-07-05T09:58:47;21.00;98.50
54576;DHT22;40472;53.486;14.542;2022-07-05T10:01:32;20.70;97.50
54576;DHT22;40472;53.486;14.542;2022-07-05T10:04:00;20.50;98.20
54576;DHT22;40472;53.486;14.542;2022-07-05T10:06:32;20.80;97.30
54576;DHT22;40472;53.486;14.542;2022-07-05T10:08:58;20.90;97.60
54576;DHT22;40472;53.486;14.542;2022-07-05T10:11:24;20.90;96.80
54576;DHT22;40472;53.486;14.542;2022-07-05T10:13:52;21.10;97.00
54576;DHT22;40472;53.486;14.542;2022-07-05T10:16:19;20.90;96.90
54576;DHT22;40472;53.486;14.542;2022-07-05T10:18:47;20.90;97.40
54576;DHT22;40472;53.486;14.542;2022-07-05T10:21:14;21.00;97.00
54576;DHT22;40472;53.486;14.542;2022-07-05T10:23:45;20.70;96.50
54576;DHT22;40472;53.486;14.542;2022-07-05T10:26:12;20.70;96.20
54576;DHT22;40472;53.486;14.542;2022-07-05T10:28:48;21.00;95.60
54576;DHT22;40472;53.486;14.542;2022-07-05T10:31:16;21.30;96.70
54576;DHT22;40472;53.486;14.542;2022-07-05T10:33:43;21.40;96.00
54576;DHT22;40472;53.486;14.542;2022-07-05T10:36:13;21.60;95.50
54576;DHT22;40472;53.486;14.542;2022-07-05T10:38:42;21.80;95.40
54576;DHT22;40472;53.486;14.542;2022-07-05T10:41:22;21.50;94.80
54576;DHT22;40472;53.486;14.542;2022-07-05T10:43:55;21.30;94.70
54576;DHT22;40472;53.486;14.542;2022-07-05T10:46:41;21.50;95.40
54576;DHT22;40472;53.486;14.542;2022-07-05T10:49:16;21.60;95.10
54576;DHT22;40472;53.486;14.542;2022-07-05T10:51:44;21.50;93.60
54576;DHT22;40472;53.486;14.542;2022-07-05T10:54:10;21.40;93.80
54576;DHT22;40472;53.486;14.542;2022-07-05T10:56:36;21.40;95.00
54576;DHT22;40472;53.486;14.542;2022-07-05T10:59:09;21.90;94.90
54576;DHT22;40472;53.486;14.542;2022-07-05T11:01:41;22.20;94.40
54576;DHT22;40472;53.486;14.542;2022-07-05T11:04:20;22.20;92.90
54576;DHT22;40472;53.486;14.542;2022-07-05T11:06:46;22.20;93.90
54576;DHT22;40472;53.486;14.542;2022-07-05T11:09:16;21.60;92.80
54576;DHT22;40472;53.486;14.542;2022-07-05T11:12:08;21.60;94.40
54576;DHT22;40472;53.486;14.542;2022-07-05T11:14:34;21.60;93.80
54576;DHT22;40472;53.486;14.542;2022-07-05T11:19:58;21.40;93.10
54576;DHT22;40472;53.486;14.542;2022-07-05T11:22:21;21.40;93.30
54576;DHT22;40472;53.486;14.542;2022-07-05T11:24:47;21.60;94.30
54576;DHT22;40472;53.486;14.542;2022-07-05T11:27:13;21.60;93.50
54576;DHT22;40472;53.486;14.542;2022-07-05T11:29:50;21.60;92.00
54576;DHT22;40472;53.486;14.542;2022-07-05T11:34:43;21.30;92.40
54576;DHT22;40472;53.486;14.542;2022-07-05T11:37:20;21.20;93.50
54576;DHT22;40472;53.486;14.542;2022-07-05T11:42:37;21.10;93.20
54576;DHT22;40472;53.486;14.542;2022-07-05T11:45:08;21.20;93.10
54576;DHT22;40472;53.486;14.542;2022-07-05T11:47:35;21.30;92.10
54576;DHT22;40472;53.486;14.542;2022-07-05T11:50:01;21.40;92.40
54576;DHT22;40472;53.486;14.542;2022-07-05T11:52:29;21.50;92.30
54576;DHT22;40472;53.486;14.542;2022-07-05T11:55:00;21.70;93.00
54576;DHT22;40472;53.486;14.542;2022-07-05T11:57:26;22.00;92.00
54576;DHT22;40472;53.486;14.542;2022-07-05T11:59:53;22.20;91.00
54576;DHT22;40472;53.486;14.542;2022-07-05T12:02:19;22.00;91.60
54576;DHT22;40472;53.486;14.542;2022-07-05T12:04:50;21.50;91.60
54576;DHT22;40472;53.486;14.542;2022-07-05T12:07:31;21.60;91.70
54576;DHT22;40472;53.486;14.542;2022-07-05T12:09:57;21.80;92.40
54576;DHT22;40472;53.486;14.542;2022-07-05T12:12:42;21.90;90.30
54576;DHT22;40472;53.486;14.542;2022-07-05T12:15:12;21.70;90.70
54576;DHT22;40472;53.486;14.542;2022-07-05T12:17:40;21.40;90.80
54576;DHT22;40472;53.486;14.542;2022-07-05T12:20:08;21.30;92.20
54576;DHT22;40472;53.486;14.542;2022-07-05T12:25:04;21.20;91.80
54576;DHT22;40472;53.486;14.542;2022-07-05T12:27:33;21.20;91.80
54576;DHT22;40472;53.486;14.542;2022-07-05T12:29:59;21.40;93.30
54576;DHT22;40472;53.486;14.542;2022-07-05T12:32:28;21.80;91.60
54576;DHT22;40472;53.486;14.542;2022-07-05T12:34:56;22.10;90.00
54576;DHT22;40472;53.486;14.542;2022-07-05T12:37:26;22.30;88.40
54576;DHT22;40472;53.486;14.542;2022-07-05T12:40:08;22.30;87.10
54576;DHT22;40472;53.486;14.542;2022-07-05T12:42:38;22.40;87.80
54576;DHT22;40472;53.486;14.542;2022-07-05T12:45:13;22.50;85.20
54576;DHT22;40472;53.486;14.542;2022-07-05T12:47:56;22.50;84.30
54576;DHT22;40472;53.486;14.542;2022-07-05T12:50:23;22.20;85.10
54576;DHT22;40472;53.486;14.542;2022-07-05T12:53:04;22.30;85.90
54576;DHT22;40472;53.486;14.542;2022-07-05T12:56:01;22.60;85.20
54576;DHT22;40472;53.486;14.542;2022-07-05T12:58:57;22.70;83.70
54576;DHT22;40472;53.486;14.542;2022-07-05T13:04:05;22.30;84.60
54576;DHT22;40472;53.486;14.542;2022-07-05T13:09:36;22.20;83.50
54576;DHT22;40472;53.486;14.542;2022-07-05T13:17:06;21.90;79.80
54576;DHT22;40472;53.486;14.542;2022-07-05T13:19:33;21.90;79.30
54576;DHT22;40472;53.486;14.542;2022-07-05T13:21:59;21.90;78.10
54576;DHT22;40472;53.486;14.542;2022-07-05T13:24:24;22.00;79.10
54576;DHT22;40472;53.486;14.542;2022-07-05T13:26:51;22.00;81.40
54576;DHT22;40472;53.486;14.542;2022-07-05T13:29:17;22.30;81.00
54576;DHT22;40472;53.486;14.542;2022-07-05T13:31:43;22.70;78.80
54576;DHT22;40472;53.486;14.542;2022-07-05T13:34:09;22.60;76.80
54576;DHT22;40472;53.486;14.542;2022-07-05T13:36:35;22.40;73.80
54576;DHT22;40472;53.486;14.542;2022-07-05T13:39:00;22.20;75.10
54576;DHT22;40472;53.486;14.542;2022-07-05T13:41:26;22.20;75.40
54576;DHT22;40472;53.486;14.542;2022-07-05T13:43:53;21.80;75.50
54576;DHT22;40472;53.486;14.542;2022-07-05T13:46:19;21.80;76.30
54576;DHT22;40472;53.486;14.542;2022-07-05T13:48:44;21.70;76.80
54576;DHT22;40472;53.486;14.542;2022-07-05T13:51:10;21.90;75.30
54576;DHT22;40472;53.486;14.542;2022-07-05T13:53:36;22.10;74.60
54576;DHT22;40472;53.486;14.542;2022-07-05T13:56:04;22.50;76.40
54576;DHT22;40472;53.486;14.542;2022-07-05T13:58:30;22.70;73.50
54576;DHT22;40472;53.486;14.542;2022-07-05T14:00:56;22.40;73.20
54576;DHT22;40472;53.486;14.542;2022-07-05T14:03:21;22.50;74.00
54576;DHT22;40472;53.486;14.542;2022-07-05T14:05:47;22.60;73.60
54576;DHT22;40472;53.486;14.542;2022-07-05T14:08:13;22.40;71.00
54576;DHT22;40472;53.486;14.542;2022-07-05T14:10:40;22.40;72.50
54576;DHT22;40472;53.486;14.542;2022-07-05T14:13:06;22.40;72.20
54576;DHT22;40472;53.486;14.542;2022-07-05T14:15:32;22.20;74.10
54576;DHT22;40472;53.486;14.542;2022-07-05T14:17:59;22.40;75.80
54576;DHT22;40472;53.486;14.542;2022-07-05T14:20:28;22.40;73.90
54576;DHT22;40472;53.486;14.542;2022-07-05T14:22:54;22.60;76.20
54576;DHT22;40472;53.486;14.542;2022-07-05T14:25:20;22.60;73.90
54576;DHT22;40472;53.486;14.542;2022-07-05T14:27:46;22.30;73.80
54576;DHT22;40472;53.486;14.542;2022-07-05T14:30:12;22.30;74.30
54576;DHT22;40472;53.486;14.542;2022-07-05T14:32:38;22.40;74.70
54576;DHT22;40472;53.486;14.542;2022-07-05T14:35:07;22.40;73.70
54576;DHT22;40472;53.486;14.542;2022-07-05T14:37:32;22.40;74.60
54576;DHT22;40472;53.486;14.542;2022-07-05T14:39:58;22.20;73.30
54576;DHT22;40472;53.486;14.542;2022-07-05T14:42:25;22.00;76.40
54576;DHT22;40472;53.486;14.542;2022-07-05T14:44:50;21.80;74.80
54576;DHT22;40472;53.486;14.542;2022-07-05T14:47:16;21.90;75.50
54576;DHT22;40472;53.486;14.542;2022-07-05T14:49:42;22.20;74.00
54576;DHT22;40472;53.486;14.542;2022-07-05T14:52:08;22.60;76.10
54576;DHT22;40472;53.486;14.542;2022-07-05T14:54:33;22.70;71.60
54576;DHT22;40472;53.486;14.542;2022-07-05T14:56:59;22.50;72.00
54576;DHT22;40472;53.486;14.542;2022-07-05T14:59:25;22.20;71.20
54576;DHT22;40472;53.486;14.542;2022-07-05T15:01:51;22.00;73.50
54576;DHT22;40472;53.486;14.542;2022-07-05T15:04:16;21.80;73.20
54576;DHT22;40472;53.486;14.542;2022-07-05T15:06:42;21.80;74.40
54576;DHT22;40472;53.486;14.542;2022-07-05T15:09:08;22.00;74.60
54576;DHT22;40472;53.486;14.542;2022-07-05T15:11:34;22.30;73.60
54576;DHT22;40472;53.486;14.542;2022-07-05T15:13:59;22.30;72.30
54576;DHT22;40472;53.486;14.542;2022-07-05T15:16:29;22.40;71.00
54576;DHT22;40472;53.486;14.542;2022-07-05T15:18:55;22.40;72.20
54576;DHT22;40472;53.486;14.542;2022-07-05T15:21:21;22.70;74.20
54576;DHT22;40472;53.486;14.542;2022-07-05T15:23:47;23.20;72.40
54576;DHT22;40472;53.486;14.542;2022-07-05T15:26:12;23.40;71.50
54576;DHT22;40472;53.486;14.542;2022-07-05T15:28:38;23.70;70.50
54576;DHT22;40472;53.486;14.542;2022-07-05T15:31:04;23.60;69.80
54576;DHT22;40472;53.486;14.542;2022-07-05T15:33:30;23.40;69.80
54576;DHT22;40472;53.486;14.542;2022-07-05T15:35:59;23.30;69.80
54576;DHT22;40472;53.486;14.542;2022-07-05T15:38:25;23.40;70.80
54576;DHT22;40472;53.486;14.542;2022-07-05T15:40:56;23.50;69.80
54576;DHT22;40472;53.486;14.542;2022-07-05T15:43:22;23.80;71.20